Time;durP1;ratioP1;P1;durP2;ratioP2;P2;SDS_P1;SDS_P2;PMS_P1;PMS_P2;Temp;Humidity;BMP_temperature;BMP_pressure;BME280_temperature;BME280_humidity;BME280_pressure;Samples;Min_cycle;Max_cycle;Signal;HPM_P1;HPM_P2
2022/05/22 00:00:25;;;;;;;7.22;1.63;;;15.80;92.60;;;;;;5012013;28;20345;-76
2022/05/22 00:02:52;;;;;;;9.20;1.92;;;15.80;92.40;;;;;;5011311;28;20371;-75
2022/05/22 00:05:20;;;;;;;10.43;1.73;;;15.80;92.40;;;;;;5011448;28;20074;-77
2022/05/22 00:07:46;;;;;;;9.95;2.28;;;15.80;92.40;;;;;;5011480;28;20093;-75
2022/05/22 00:10:13;;;;;;;10.25;2.60;;;15.80;92.30;;;;;;5010772;28;20038;-76
2022/05/22 00:12:40;;;;;;;6.93;1.85;;;15.70;92.70;;;;;;5011313;28;20030;-76
2022/05/22 00:15:07;;;;;;;6.37;1.60;;;15.60;92.70;;;;;;5026739;28;20125;-78
2022/05/22 00:17:33;;;;;;;8.88;1.83;;;15.60;92.60;;;;;;5010126;28;20608;-76
2022/05/22 00:19:58;;;;;;;6.93;1.73;;;15.70;92.60;;;;;;5010053;28;20109;-77
2022/05/22 00:22:24;;;;;;;5.90;1.50;;;15.70;92.60;;;;;;5010770;28;20347;-76
2022/05/22 00:24:50;;;;;;;13.25;1.63;;;15.70;92.60;;;;;;5011064;28;20044;-77
2022/05/22 00:27:15;;;;;;;8.68;2.20;;;15.70;92.50;;;;;;5010484;28;20397;-77
2022/05/22 00:29:41;;;;;;;11.82;2.42;;;15.70;92.60;;;;;;5011042;28;20434;-78
2022/05/22 00:32:08;;;;;;;5.43;1.73;;;15.70;92.60;;;;;;5010937;28;20030;-75
2022/05/22 00:34:35;;;;;;;10.10;2.47;;;15.70;92.80;;;;;;5011000;28;20033;-75
2022/05/22 00:37:01;;;;;;;10.88;1.63;;;15.60;92.90;;;;;;5009815;28;20040;-77
2022/05/22 00:39:27;;;;;;;6.88;1.50;;;15.50;92.90;;;;;;5010021;28;20021;-77
2022/05/22 00:41:55;;;;;;;12.73;2.05;;;15.50;93.10;;;;;;5026089;28;20050;-77
2022/05/22 00:44:21;;;;;;;10.98;1.70;;;15.40;93.30;;;;;;5010986;28;20107;-78
2022/05/22 00:46:48;;;;;;;5.78;1.80;;;15.40;93.20;;;;;;5010915;28;20040;-77
2022/05/22 00:49:23;;;;;;;8.35;1.40;;;15.50;93.40;;;;;;5009748;28;20030;-78
2022/05/22 00:52:03;;;;;;;7.72;1.60;;;15.50;93.60;;;;;;5011239;28;20034;-76
2022/05/22 00:54:31;;;;;;;10.48;2.00;;;15.50;93.40;;;;;;5011356;28;20084;-76
2022/05/22 00:57:15;;;;;;;7.43;1.58;;;15.50;93.40;;;;;;5010971;28;20419;-77
2022/05/22 00:59:46;;;;;;;9.32;2.55;;;15.50;93.50;;;;;;5009864;28;20037;-76
2022/05/22 01:02:15;;;;;;;10.90;2.47;;;15.40;93.50;;;;;;5009716;28;20438;-75
2022/05/22 01:04:41;;;;;;;9.60;1.77;;;15.30;93.60;;;;;;5009916;28;20340;-75
2022/05/22 01:07:08;;;;;;;6.57;1.88;;;15.30;93.80;;;;;;5010602;28;20029;-76
2022/05/22 01:09:35;;;;;;;7.10;1.50;;;15.20;94.00;;;;;;5011126;28;20113;-76
2022/05/22 01:12:08;;;;;;;9.82;2.00;;;15.20;94.30;;;;;;5010660;28;20022;-76
2022/05/22 01:14:35;;;;;;;6.85;1.67;;;15.00;94.50;;;;;;5026095;28;20026;-76
2022/05/22 01:17:07;;;;;;;6.65;1.60;;;15.00;94.80;;;;;;5011241;28;20088;-76
2022/05/22 01:19:33;;;;;;;8.65;1.80;;;14.90;94.90;;;;;;5010494;28;20077;-77
2022/05/22 01:22:12;;;;;;;9.93;2.03;;;14.90;95.00;;;;;;5010338;28;20033;-77
2022/05/22 01:24:39;;;;;;;10.95;1.42;;;14.90;95.00;;;;;;5014869;28;20064;-76
2022/05/22 01:27:10;;;;;;;7.13;2.10;;;14.80;95.10;;;;;;5015034;28;20060;-76
2022/05/22 01:29:36;;;;;;;10.38;1.83;;;14.80;95.20;;;;;;5037313;28;20454;-77
2022/05/22 01:32:04;;;;;;;9.20;1.70;;;14.80;95.30;;;;;;5021854;28;20054;-76
2022/05/22 01:34:29;;;;;;;10.20;2.30;;;14.70;95.40;;;;;;5034926;28;20113;-76
2022/05/22 01:36:55;;;;;;;8.32;1.65;;;14.60;95.60;;;;;;5031967;28;20473;-77
2022/05/22 01:39:21;;;;;;;7.00;1.30;;;14.70;95.60;;;;;;5034447;28;20030;-76
2022/05/22 01:41:46;;;;;;;10.07;2.05;;;14.60;95.60;;;;;;5031413;28;20042;-77
2022/05/22 01:44:12;;;;;;;5.78;1.60;;;14.60;95.80;;;;;;5032957;28;20034;-77
2022/05/22 01:46:38;;;;;;;7.90;1.58;;;14.60;95.80;;;;;;5033082;28;20021;-75
2022/05/22 01:49:04;;;;;;;23.75;2.63;;;14.50;95.80;;;;;;5034113;28;20053;-76
2022/05/22 01:51:35;;;;;;;15.18;2.83;;;14.40;96.30;;;;;;5034135;28;20033;-77
2022/05/22 01:54:01;;;;;;;4.88;1.58;;;14.40;96.40;;;;;;5033944;28;20041;-76
2022/05/22 01:56:28;;;;;;;4.60;1.80;;;14.40;96.50;;;;;;5033857;28;20033;-77
2022/05/22 01:58:54;;;;;;;7.78;1.90;;;14.40;96.50;;;;;;5033582;28;20057;-76
2022/05/22 02:01:20;;;;;;;3.75;1.23;;;14.40;96.60;;;;;;5033442;28;20072;-77
2022/05/22 02:03:45;;;;;;;5.40;1.70;;;14.40;96.60;;;;;;5033560;28;20017;-77
2022/05/22 02:06:11;;;;;;;8.80;1.60;;;14.40;96.70;;;;;;5033874;28;20100;-77
2022/05/22 02:08:38;;;;;;;7.20;2.10;;;14.30;96.60;;;;;;5032346;28;20112;-77
2022/05/22 02:11:07;;;;;;;10.48;2.00;;;14.30;96.80;;;;;;5033338;28;20029;-78
2022/05/22 02:13:39;;;;;;;12.05;2.72;;;14.30;96.90;;;;;;5033106;28;20033;-75
2022/05/22 02:16:04;;;;;;;8.45;2.20;;;14.20;96.90;;;;;;5032137;28;20029;-76
2022/05/22 02:18:31;;;;;;;9.95;1.73;;;14.20;97.00;;;;;;5032561;28;20017;-76
2022/05/22 02:20:56;;;;;;;7.60;2.13;;;14.10;97.00;;;;;;5033003;28;20037;-77
2022/05/22 02:23:22;;;;;;;7.90;1.98;;;14.10;97.10;;;;;;5033201;28;20022;-76
2022/05/22 02:25:50;;;;;;;11.63;2.03;;;14.10;97.00;;;;;;5033280;28;20076;-76
2022/05/22 02:28:17;;;;;;;11.23;2.28;;;14.10;97.10;;;;;;5032895;28;20030;-76
2022/05/22 02:30:53;;;;;;;10.70;2.20;;;14.10;97.10;;;;;;5032955;28;20034;-76
2022/05/22 02:33:22;;;;;;;6.68;1.95;;;14.10;97.20;;;;;;5032729;28;20025;-76
2022/05/22 02:35:50;;;;;;;10.20;1.75;;;14.10;97.10;;;;;;5031621;28;20087;-76
2022/05/22 02:38:16;;;;;;;6.05;1.92;;;14.20;97.10;;;;;;5032846;28;20022;-75
2022/05/22 02:40:42;;;;;;;8.15;2.22;;;14.20;96.90;;;;;;5031360;28;20068;-75
2022/05/22 02:43:08;;;;;;;10.65;2.25;;;14.20;97.00;;;;;;5032653;28;20056;-76
2022/05/22 02:45:36;;;;;;;6.82;1.90;;;14.20;97.10;;;;;;5031993;28;20033;-76
2022/05/22 02:48:03;;;;;;;10.18;2.20;;;14.20;96.90;;;;;;5032613;28;20144;-75
2022/05/22 02:50:30;;;;;;;9.30;2.22;;;14.10;96.80;;;;;;5031510;28;20508;-77
2022/05/22 02:52:56;;;;;;;8.50;2.03;;;14.10;97.00;;;;;;5032483;28;20037;-77
2022/05/22 02:55:22;;;;;;;8.90;2.22;;;14.10;96.90;;;;;;5031390;28;20455;-76
2022/05/22 02:57:49;;;;;;;10.65;2.33;;;14.10;96.80;;;;;;5032620;28;20431;-77
2022/05/22 03:00:26;;;;;;;8.02;2.22;;;14.20;96.70;;;;;;5032974;28;20032;-76
2022/05/22 03:02:52;;;;;;;7.03;2.38;;;14.10;96.90;;;;;;5031341;28;20037;-76
2022/05/22 03:05:18;;;;;;;6.00;2.25;;;14.20;97.00;;;;;;5032041;28;20101;-76
2022/05/22 03:07:44;;;;;;;10.63;2.67;;;14.20;97.00;;;;;;5032238;28;20125;-76
2022/05/22 03:10:13;;;;;;;5.40;1.80;;;14.10;96.70;;;;;;5031351;28;20036;-76
2022/05/22 03:12:38;;;;;;;9.60;2.28;;;14.10;96.70;;;;;;5032887;28;20109;-77
2022/05/22 03:15:07;;;;;;;6.82;2.08;;;14.00;96.70;;;;;;5032213;28;20555;-75
2022/05/22 03:17:33;;;;;;;6.47;1.67;;;14.10;96.70;;;;;;5032199;28;20445;-76
2022/05/22 03:19:59;;;;;;;7.65;1.95;;;14.10;96.90;;;;;;5032145;28;20526;-76
2022/05/22 03:22:25;;;;;;;3.55;1.50;;;14.10;97.00;;;;;;5031733;28;20068;-76
2022/05/22 03:24:51;;;;;;;15.52;3.25;;;14.10;97.00;;;;;;5030813;28;20044;-78
2022/05/22 03:27:18;;;;;;;9.57;2.17;;;14.00;96.80;;;;;;5031306;28;20450;-76
2022/05/22 03:29:47;;;;;;;6.45;2.13;;;13.90;96.50;;;;;;5031733;28;20041;-76
2022/05/22 03:32:14;;;;;;;6.60;2.25;;;13.90;96.50;;;;;;5031947;28;20029;-76
2022/05/22 03:34:40;;;;;;;14.07;2.55;;;13.90;96.50;;;;;;5030627;28;20041;-76
2022/05/22 03:37:06;;;;;;;9.45;2.08;;;13.90;96.60;;;;;;5031677;28;20040;-75
2022/05/22 03:39:32;;;;;;;7.13;2.17;;;14.00;96.70;;;;;;5031966;28;20021;-78
2022/05/22 03:41:58;;;;;;;10.57;2.28;;;14.00;96.90;;;;;;5030539;28;20124;-77
2022/05/22 03:44:24;;;;;;;8.55;1.88;;;14.00;97.00;;;;;;5031814;28;20025;-76
2022/05/22 03:46:50;;;;;;;7.63;2.10;;;14.00;97.30;;;;;;5031609;28;20029;-76
2022/05/22 03:49:15;;;;;;;8.25;1.77;;;14.00;97.50;;;;;;5031691;28;20022;-77
2022/05/22 03:51:42;;;;;;;6.97;1.70;;;13.90;97.50;;;;;;5031677;28;20065;-77
2022/05/22 03:54:08;;;;;;;5.00;2.10;;;14.00;97.50;;;;;;5031597;28;20083;-76
2022/05/22 03:56:35;;;;;;;9.05;2.03;;;14.00;97.20;;;;;;5031976;28;20033;-76
2022/05/22 03:59:02;;;;;;;15.45;2.30;;;14.00;97.10;;;;;;5032169;28;20060;-76
2022/05/22 04:01:28;;;;;;;9.32;1.98;;;14.00;96.70;;;;;;5030968;28;20091;-77
2022/05/22 04:03:54;;;;;;;4.78;1.65;;;14.00;96.80;;;;;;5032560;28;20025;-76
2022/05/22 04:06:20;;;;;;;7.70;1.90;;;13.90;96.80;;;;;;5031301;28;20351;-76
2022/05/22 04:08:45;;;;;;;6.30;1.85;;;14.00;96.90;;;;;;5031206;28;20049;-75
2022/05/22 04:11:17;;;;;;;6.60;1.80;;;13.90;97.10;;;;;;5031583;28;20040;-76
2022/05/22 04:13:43;;;;;;;7.38;1.90;;;13.90;97.30;;;;;;5029881;28;20041;-75
2022/05/22 04:16:09;;;;;;;10.52;2.10;;;13.80;97.30;;;;;;5030941;28;20037;-75
2022/05/22 04:18:35;;;;;;;3.70;1.67;;;13.90;97.30;;;;;;5031347;28;20502;-75
2022/05/22 04:21:01;;;;;;;7.15;1.90;;;13.90;97.20;;;;;;5029932;28;20041;-75
2022/05/22 04:26:11;;;;;;;12.02;2.22;;;13.80;97.20;;;;;;5031173;28;20434;-76
2022/05/22 04:28:38;;;;;;;5.38;2.67;;;13.90;97.10;;;;;;5030859;28;20064;-76
2022/05/22 04:31:04;;;;;;;8.68;2.30;;;13.80;97.20;;;;;;5029489;28;20358;-76
2022/05/22 04:33:31;;;;;;;12.60;2.95;;;13.80;97.20;;;;;;5030149;28;20474;-76
2022/05/22 04:35:57;;;;;;;9.23;2.25;;;13.80;97.00;;;;;;5030671;28;20033;-76
2022/05/22 04:38:23;;;;;;;8.80;1.85;;;13.90;97.30;;;;;;5030800;28;20073;-75
2022/05/22 04:40:55;;;;;;;10.73;1.92;;;13.80;97.30;;;;;;5030099;28;20033;-75
2022/05/22 04:43:22;;;;;;;9.00;2.15;;;13.90;97.20;;;;;;5030688;28;20036;-75
2022/05/22 04:45:48;;;;;;;5.72;1.90;;;13.90;97.50;;;;;;5030338;28;20447;-77
2022/05/22 04:48:13;;;;;;;5.60;2.25;;;14.00;96.90;;;;;;5031140;28;20422;-77
2022/05/22 04:50:39;;;;;;;8.60;2.00;;;14.10;96.70;;;;;;5030449;28;20116;-76
2022/05/22 04:53:05;;;;;;;10.23;2.35;;;14.00;96.50;;;;;;5029382;28;20049;-75
2022/05/22 04:55:30;;;;;;;15.40;2.25;;;14.00;96.50;;;;;;5030543;28;20104;-77
2022/05/22 04:57:56;;;;;;;9.13;2.60;;;14.20;96.30;;;;;;5029623;28;20351;-78
2022/05/22 05:00:22;;;;;;;10.57;2.35;;;14.30;96.10;;;;;;5031025;28;20017;-77
2022/05/22 05:02:47;;;;;;;8.82;2.30;;;14.50;96.00;;;;;;5029079;28;20398;-78
2022/05/22 05:05:13;;;;;;;19.83;3.00;;;14.50;95.80;;;;;;5030205;28;20470;-77
2022/05/22 05:07:41;;;;;;;9.65;2.20;;;14.50;96.00;;;;;;5030415;28;20029;-77
2022/05/22 05:10:08;;;;;;;6.55;2.08;;;14.60;96.00;;;;;;5030314;28;20084;-76
2022/05/22 05:12:41;;;;;;;8.90;2.33;;;14.60;96.00;;;;;;5030494;28;20037;-76
2022/05/22 05:15:08;;;;;;;10.82;2.17;;;14.60;96.00;;;;;;5029352;28;20037;-78
2022/05/22 05:17:35;;;;;;;17.70;2.40;;;14.70;96.30;;;;;;5029148;28;20034;-77
2022/05/22 05:20:00;;;;;;;10.90;2.17;;;14.60;96.00;;;;;;5029209;28;20053;-77
2022/05/22 05:22:30;;;;;;;9.35;3.10;;;14.70;96.00;;;;;;5030021;28;20060;-77
2022/05/22 05:24:55;;;;;;;9.05;2.63;;;14.60;96.00;;;;;;5029113;28;20064;-76
2022/05/22 05:27:21;;;;;;;5.32;2.10;;;14.80;96.00;;;;;;5029661;28;20057;-77
2022/05/22 05:29:47;;;;;;;15.20;3.03;;;14.70;95.90;;;;;;5030208;28;20037;-77
2022/05/22 05:32:16;;;;;;;6.90;2.38;;;14.70;96.00;;;;;;5029211;28;20052;-76
2022/05/22 05:34:42;;;;;;;8.80;2.60;;;14.90;96.00;;;;;;5029280;28;20498;-77
2022/05/22 05:37:07;;;;;;;8.65;2.75;;;15.00;95.80;;;;;;5030106;28;20137;-76
2022/05/22 05:39:34;;;;;;;5.88;2.42;;;15.10;95.70;;;;;;5030298;28;20094;-76
2022/05/22 05:42:00;;;;;;;8.50;2.53;;;15.20;95.70;;;;;;5030152;28;20135;-76
2022/05/22 05:44:25;;;;;;;10.75;2.30;;;15.10;95.60;;;;;;5030357;28;20110;-76
2022/05/22 05:46:51;;;;;;;16.15;2.60;;;15.20;95.60;;;;;;5030095;28;20447;-76
2022/05/22 05:49:17;;;;;;;10.63;2.50;;;15.30;95.50;;;;;;5029943;28;20399;-75
2022/05/22 05:51:42;;;;;;;7.40;2.33;;;15.50;95.30;;;;;;5030121;28;20033;-76
2022/05/22 05:54:08;;;;;;;13.38;2.67;;;15.60;95.00;;;;;;5029464;28;20025;-75
2022/05/22 05:56:37;;;;;;;9.32;3.05;;;15.70;95.00;;;;;;5030042;28;20417;-76
2022/05/22 05:59:03;;;;;;;13.40;2.45;;;15.80;95.00;;;;;;5028867;28;20072;-75
2022/05/22 06:01:29;;;;;;;7.97;2.25;;;15.90;94.90;;;;;;5030341;28;20056;-75
2022/05/22 06:03:54;;;;;;;10.32;2.38;;;16.10;94.50;;;;;;5030167;28;20113;-76
2022/05/22 06:06:20;;;;;;;9.35;2.35;;;16.10;94.20;;;;;;5030537;28;20344;-76
2022/05/22 06:08:47;;;;;;;11.27;2.67;;;16.10;94.30;;;;;;5030313;28;20105;-76
2022/05/22 06:11:12;;;;;;;5.70;2.33;;;16.00;94.20;;;;;;5033406;28;20115;-75
2022/05/22 06:13:40;;;;;;;9.50;2.58;;;15.90;94.40;;;;;;5032256;28;20034;-76
2022/05/22 06:16:07;;;;;;;11.15;2.97;;;15.50;94.20;;;;;;5033164;28;20340;-75
2022/05/22 06:18:33;;;;;;;14.43;3.00;;;15.50;94.60;;;;;;5033574;28;20471;-76
2022/05/22 06:21:06;;;;;;;12.90;2.75;;;15.70;94.70;;;;;;5033406;28;20037;-75
2022/05/22 06:23:33;;;;;;;6.85;2.42;;;15.80;94.50;;;;;;5033291;28;20029;-76
2022/05/22 06:25:59;;;;;;;10.93;2.30;;;16.00;94.20;;;;;;5033040;28;20040;-76
2022/05/22 06:28:25;;;;;;;9.15;2.03;;;16.10;93.80;;;;;;5032274;28;20033;-76
2022/05/22 06:30:50;;;;;;;15.18;2.33;;;16.30;93.80;;;;;;5032224;28;20340;-76
2022/05/22 06:33:16;;;;;;;18.30;4.22;;;16.50;93.40;;;;;;5032222;28;20040;-75
2022/05/22 06:35:43;;;;;;;13.80;2.83;;;16.40;93.30;;;;;;5032853;28;20037;-76
2022/05/22 06:39:49;;;;;;;11.73;3.83;;;16.30;93.20;;;;;;5032222;28;20115;-75
2022/05/22 06:40:55;;;;;;;21.10;3.05;;;16.30;93.20;;;;;;5032533;28;20046;-77
2022/05/22 06:43:21;;;;;;;16.13;2.72;;;16.30;93.40;;;;;;5032697;28;20025;-76
2022/05/22 06:45:50;;;;;;;13.05;2.38;;;16.30;93.30;;;;;;5032618;28;20025;-76
2022/05/22 06:48:17;;;;;;;6.05;2.03;;;16.10;93.30;;;;;;5033105;28;20025;-76
2022/05/22 06:50:43;;;;;;;9.55;2.70;;;16.20;93.10;;;;;;5032602;28;20407;-75
2022/05/22 06:53:09;;;;;;;8.30;2.25;;;16.20;92.90;;;;;;5032669;28;20033;-75
2022/05/22 06:55:34;;;;;;;10.35;2.22;;;16.10;93.00;;;;;;5032223;28;20030;-76
2022/05/22 06:58:00;;;;;;;10.95;2.90;;;15.90;93.10;;;;;;5031282;28;20037;-74
2022/05/22 07:00:27;;;;;;;8.02;2.58;;;15.90;93.10;;;;;;5032921;28;20108;-74
2022/05/22 07:02:52;;;;;;;15.00;2.97;;;16.00;93.10;;;;;;5032270;28;20050;-78
2022/05/22 07:05:18;;;;;;;8.45;2.35;;;16.10;92.70;;;;;;5032468;28;20030;-74
2022/05/22 07:07:44;;;;;;;9.57;2.10;;;16.00;92.30;;;;;;5032180;28;20033;-78
2022/05/22 07:10:10;;;;;;;8.85;2.13;;;16.10;92.40;;;;;;5031020;28;20071;-76
2022/05/22 07:12:36;;;;;;;8.93;2.17;;;16.00;92.10;;;;;;5032449;28;20068;-76
2022/05/22 07:15:03;;;;;;;11.85;2.42;;;16.10;91.90;;;;;;5031947;28;20029;-77
2022/05/22 07:17:29;;;;;;;9.10;2.05;;;16.00;91.90;;;;;;5032135;28;20041;-77
2022/05/22 07:19:56;;;;;;;9.93;2.28;;;16.20;92.20;;;;;;5031610;28;20057;-76
2022/05/22 07:22:22;;;;;;;9.82;1.83;;;16.30;92.10;;;;;;5031908;28;20064;-76
2022/05/22 07:24:48;;;;;;;6.82;1.63;;;16.40;91.50;;;;;;5031675;28;20025;-76
2022/05/22 07:27:14;;;;;;;12.05;1.75;;;16.50;91.10;;;;;;5032290;28;20031;-74
2022/05/22 07:29:41;;;;;;;7.70;1.92;;;16.50;90.50;;;;;;5031858;28;20493;-72
2022/05/22 07:32:07;;;;;;;8.43;1.95;;;16.40;90.50;;;;;;5031715;28;20083;-74
2022/05/22 07:34:33;;;;;;;11.10;1.60;;;16.50;90.70;;;;;;5031818;28;20456;-74
2022/05/22 07:37:01;;;;;;;9.30;1.80;;;16.60;90.50;;;;;;5031614;28;20516;-74
2022/05/22 07:39:27;;;;;;;7.90;1.90;;;16.70;90.70;;;;;;5030622;28;20021;-74
2022/05/22 07:41:54;;;;;;;8.55;1.83;;;16.70;90.60;;;;;;5031570;28;20033;-74
2022/05/22 07:44:20;;;;;;;6.25;1.20;;;16.70;90.20;;;;;;5031595;28;20362;-75
2022/05/22 07:46:47;;;;;;;4.93;1.30;;;16.60;89.30;;;;;;5029077;28;20032;-72
2022/05/22 07:50:16;;;;;;;7.63;1.27;;;16.40;88.30;;;;;;5030793;28;20034;-74
2022/05/22 07:52:09;;;;;;;5.60;1.33;;;16.70;88.70;;;;;;5029002;28;20459;-72
2022/05/22 07:54:37;;;;;;;9.00;1.92;;;17.00;87.60;;;;;;5012110;28;20049;-74
2022/05/22 07:57:03;;;;;;;6.55;1.40;;;17.20;88.30;;;;;;5011691;28;20040;-73
2022/05/22 07:59:32;;;;;;;5.07;1.90;;;17.70;87.00;;;;;;5011971;28;20034;-74
2022/05/22 08:01:58;;;;;;;11.18;2.55;;;18.20;87.10;;;;;;5011204;28;20092;-73
2022/05/22 08:04:24;;;;;;;3.78;1.27;;;18.20;83.70;;;;;;5011874;28;20030;-74
2022/05/22 08:06:49;;;;;;;4.10;1.25;;;18.90;81.30;;;;;;5011709;28;20348;-74
2022/05/22 08:09:16;;;;;;;7.38;1.52;;;18.80;80.50;;;;;;5011149;28;20033;-72
2022/05/22 08:11:42;;;;;;;4.45;1.25;;;19.20;80.60;;;;;;5011717;28;20054;-72
2022/05/22 08:14:07;;;;;;;6.32;1.20;;;19.30;81.80;;;;;;5011646;28;20034;-72
2022/05/22 08:16:33;;;;;;;8.27;1.70;;;19.40;80.20;;;;;;5011427;28;20045;-74
2022/05/22 08:18:58;;;;;;;6.07;1.60;;;19.20;79.40;;;;;;5010549;28;20662;-72
2022/05/22 08:21:24;;;;;;;5.07;0.88;;;19.40;79.10;;;;;;5012127;28;20435;-73
2022/05/22 08:23:50;;;;;;;4.20;1.20;;;20.20;78.80;;;;;;5011688;28;20030;-73
2022/05/22 08:26:16;;;;;;;3.78;1.40;;;21.90;79.20;;;;;;5011243;28;20096;-73
2022/05/22 08:28:41;;;;;;;3.13;0.95;;;23.10;76.70;;;;;;5011356;28;20052;-75
2022/05/22 08:31:07;;;;;;;4.70;1.30;;;24.10;69.60;;;;;;5010876;28;20502;-73
2022/05/22 08:33:34;;;;;;;8.27;1.70;;;24.80;66.80;;;;;;5010104;28;20026;-75
2022/05/22 08:36:00;;;;;;;9.93;1.42;;;23.70;63.60;;;;;;5011228;28;20468;-74
2022/05/22 08:38:25;;;;;;;7.63;1.35;;;22.40;65.70;;;;;;5011606;28;20053;-74
2022/05/22 08:41:06;;;;;;;5.72;1.38;;;22.70;68.70;;;;;;5022553;28;20049;-71
2022/05/22 08:43:41;;;;;;;7.68;1.40;;;22.60;64.70;;;;;;5030775;28;20099;-73
2022/05/22 08:46:10;;;;;;;5.40;1.42;;;21.40;64.50;;;;;;5030603;28;20069;-74
2022/05/22 08:48:45;;;;;;;7.18;1.30;;;21.30;67.60;;;;;;5030364;28;20017;-75
2022/05/22 08:51:17;;;;;;;5.80;1.23;;;23.00;66.20;;;;;;5031063;28;20454;-74
2022/05/22 08:53:49;;;;;;;4.57;1.45;;;23.80;63.70;;;;;;5030991;28;20048;-72
2022/05/22 08:59:25;;;;;;;3.33;1.55;;;24.20;61.80;;;;;;5030714;28;20414;-73
2022/05/22 09:02:25;;;;;;;4.80;0.90;;;24.00;61.00;;;;;;5030362;28;20029;-72
2022/05/22 09:05:20;;;;;;;4.88;1.10;;;25.10;62.10;;;;;;5030705;28;20040;-72
2022/05/22 09:08:08;;;;;;;6.88;1.20;;;26.20;57.30;;;;;;5030369;28;20026;-74
2022/05/22 09:10:59;;;;;;;3.80;0.98;;;25.90;56.60;;;;;;5030455;28;20116;-74
2022/05/22 09:13:33;;;;;;;5.15;1.30;;;24.90;58.20;;;;;;5030482;28;20029;-71
2022/05/22 09:16:13;;;;;;;8.02;1.95;;;25.60;56.60;;;;;;5030125;28;20025;-72
2022/05/22 09:18:51;;;;;;;5.22;1.17;;;26.10;56.40;;;;;;5031290;28;20053;-72
2022/05/22 09:21:43;;;;;;;3.88;0.95;;;26.50;54.70;;;;;;5030776;28;20367;-73
2022/05/22 09:24:27;;;;;;;4.82;1.10;;;27.40;53.20;;;;;;5030773;28;20526;-74
2022/05/22 09:27:33;;;;;;;5.40;1.67;;;25.20;52.40;;;;;;5030915;28;20053;-75
2022/05/22 09:30:10;;;;;;;3.15;1.00;;;26.00;53.60;;;;;;5029411;28;20022;-72
2022/05/22 09:32:59;;;;;;;3.78;0.75;;;25.60;52.70;;;;;;5030096;28;20363;-73
2022/05/22 09:35:49;;;;;;;3.75;1.20;;;25.50;53.20;;;;;;5030236;28;20033;-73
2022/05/22 09:38:15;;;;;;;4.88;1.25;;;25.00;52.80;;;;;;5030371;28;20433;-73
2022/05/22 09:40:57;;;;;;;3.90;1.10;;;25.40;53.10;;;;;;5030123;28;20125;-74
2022/05/22 09:43:40;;;;;;;3.50;1.10;;;25.30;53.10;;;;;;5031933;28;20057;-75
2022/05/22 09:46:08;;;;;;;4.78;1.20;;;24.60;52.00;;;;;;5034074;28;20085;-71
2022/05/22 09:48:52;;;;;;;2.50;1.08;;;24.30;53.80;;;;;;5033148;28;20159;-71
2022/05/22 09:51:31;;;;;;;6.70;1.45;;;23.80;53.90;;;;;;5034086;28;20037;-72
2022/05/22 09:54:36;;;;;;;3.00;1.17;;;23.40;54.60;;;;;;5034037;28;20467;-74
2022/05/22 09:57:32;;;;;;;6.60;1.10;;;23.60;56.40;;;;;;5034094;28;20344;-73
2022/05/22 10:00:18;;;;;;;8.02;1.70;;;23.30;55.10;;;;;;5028764;28;20482;-76
2022/05/22 10:03:09;;;;;;;6.32;0.90;;;23.10;55.50;;;;;;5032839;28;20041;-76
2022/05/22 10:05:57;;;;;;;2.65;1.10;;;23.40;55.60;;;;;;5032323;28;20039;-77
2022/05/22 10:08:41;;;;;;;5.53;1.17;;;23.30;56.40;;;;;;5033458;28;20426;-73
2022/05/22 10:11:10;;;;;;;6.93;1.05;;;23.70;55.60;;;;;;5032515;28;20029;-73
2022/05/22 10:14:05;;;;;;;4.40;1.00;;;23.30;56.50;;;;;;5033423;28;20025;-74
2022/05/22 10:16:59;;;;;;;5.10;1.25;;;23.40;55.30;;;;;;5014256;28;20049;-74
2022/05/22 10:19:57;;;;;;;7.57;1.30;;;22.80;56.30;;;;;;5033486;28;20515;-71
2022/05/22 10:23:04;;;;;;;7.10;1.60;;;23.50;59.70;;;;;;5031666;28;20025;-75
2022/05/22 10:26:11;;;;;;;1.63;0.83;;;22.70;55.60;;;;;;5020415;28;20030;-74
2022/05/22 10:29:02;;;;;;;6.15;1.45;;;22.40;57.20;;;;;;5032890;28;20371;-72
2022/05/22 10:31:52;;;;;;;4.10;1.45;;;21.10;57.70;;;;;;5032915;28;20040;-73
2022/05/22 10:34:43;;;;;;;5.50;1.50;;;20.80;58.50;;;;;;5032759;28;20064;-73
2022/05/22 10:37:40;;;;;;;5.18;1.20;;;21.60;58.20;;;;;;5032115;28;20320;-73
2022/05/22 10:40:08;;;;;;;3.92;1.63;;;21.40;56.20;;;;;;5031305;28;20029;-74
2022/05/22 10:42:46;;;;;;;11.38;1.30;;;21.50;56.20;;;;;;5033367;28;20033;-72
2022/05/22 10:45:21;;;;;;;4.13;1.23;;;21.90;57.80;;;;;;5032728;28;20037;-74
2022/05/22 10:47:47;;;;;;;2.47;0.70;;;22.40;56.30;;;;;;5032562;28;20034;-75
2022/05/22 10:50:26;;;;;;;2.63;0.93;;;22.50;56.10;;;;;;5031515;28;20367;-74
2022/05/22 10:52:52;;;;;;;5.28;1.08;;;22.10;55.40;;;;;;5032359;28;20060;-74
2022/05/22 10:55:24;;;;;;;4.65;1.23;;;21.60;54.90;;;;;;5031655;28;20031;-73
2022/05/22 10:57:56;;;;;;;5.47;1.38;;;21.70;55.30;;;;;;5032174;28;20033;-73
2022/05/22 11:00:22;;;;;;;4.45;1.08;;;21.80;55.70;;;;;;5033333;28;20049;-74
2022/05/22 11:02:48;;;;;;;3.25;1.10;;;22.10;55.50;;;;;;5033223;28;20306;-74
2022/05/22 11:05:22;;;;;;;2.80;0.88;;;22.20;55.60;;;;;;5031728;28;20091;-74
2022/05/22 11:07:51;;;;;;;5.25;1.13;;;22.30;56.10;;;;;;5032028;28;20481;-74
2022/05/22 11:10:33;;;;;;;3.05;0.70;;;22.30;56.60;;;;;;5031735;28;20247;-74
2022/05/22 11:13:09;;;;;;;6.03;1.27;;;22.10;56.50;;;;;;5032399;28;20410;-75
2022/05/22 11:15:42;;;;;;;3.22;0.70;;;21.80;56.00;;;;;;5032450;28;20029;-76
2022/05/22 11:18:18;;;;;;;8.15;3.00;;;21.90;56.60;;;;;;5051257;28;20041;-75
2022/05/22 11:20:52;;;;;;;4.38;1.10;;;22.10;56.50;;;;;;5052012;28;20064;-76
2022/05/22 11:23:37;;;;;;;3.10;0.90;;;22.30;56.50;;;;;;5052060;28;20033;-76
2022/05/22 11:26:12;;;;;;;2.42;0.88;;;22.30;56.20;;;;;;5052075;28;20061;-73
2022/05/22 11:29:15;;;;;;;4.75;0.85;;;22.40;56.10;;;;;;5051679;28;20549;-75
2022/05/22 11:31:56;;;;;;;4.00;1.02;;;22.60;54.70;;;;;;5050374;28;20029;-74
2022/05/22 11:34:34;;;;;;;6.28;1.10;;;22.40;53.50;;;;;;5051478;28;20385;-70
2022/05/22 11:37:12;;;;;;;4.90;0.85;;;22.50;54.80;;;;;;5050287;28;20025;-74
2022/05/22 11:39:49;;;;;;;;;;;22.30;54.70;;;;;;5052113;28;20090;-72
2022/05/22 11:42:18;;;;;;;6.93;1.25;;;21.90;55.80;;;;;;5050401;28;19917;-73
2022/05/22 11:45:07;;;;;;;6.35;1.92;;;22.00;56.70;;;;;;5051217;28;20048;-70
2022/05/22 11:47:54;;;;;;;4.32;1.00;;;22.10;57.40;;;;;;5051212;28;20040;-72
2022/05/22 11:50:22;;;;;;;8.57;2.07;;;22.10;56.10;;;;;;5051238;28;20029;-72
2022/05/22 11:53:10;;;;;;;2.25;1.30;;;22.10;55.70;;;;;;5051200;28;20025;-71
2022/05/22 11:55:36;;;;;;;;;;;21.80;56.30;;;;;;5051504;28;20029;-71
2022/05/22 11:58:10;;;;;;;6.13;1.40;;;21.70;56.50;;;;;;5048742;28;19909;-70
2022/05/22 12:01:17;;;;;;;1.67;0.73;;;21.90;57.90;;;;;;5033202;28;20031;-70
2022/05/22 12:04:03;;;;;;;5.13;1.40;;;22.40;55.90;;;;;;5033387;28;20041;-73
2022/05/22 12:06:38;;;;;;;7.35;1.00;;;22.40;55.70;;;;;;5030331;28;20029;-73
2022/05/22 12:09:11;;;;;;;5.97;1.30;;;22.40;56.00;;;;;;5030921;28;20041;-74
2022/05/22 12:11:58;;;;;;;6.28;1.20;;;22.20;56.00;;;;;;5030874;28;20083;-76
2022/05/22 12:14:27;;;;;;;9.35;1.10;;;22.20;57.50;;;;;;5030914;28;20030;-72
2022/05/22 12:17:03;;;;;;;4.25;1.15;;;22.30;55.90;;;;;;5030827;28;20041;-72
2022/05/22 12:19:54;;;;;;;3.65;1.00;;;22.20;55.00;;;;;;5030679;28;20086;-74
2022/05/22 12:22:21;;;;;;;2.30;1.02;;;21.90;55.80;;;;;;5030692;28;20149;-72
2022/05/22 12:25:00;;;;;;;3.90;0.98;;;22.30;56.80;;;;;;5030604;28;20447;-74
2022/05/22 12:27:32;;;;;;;8.32;1.10;;;22.40;57.20;;;;;;5030949;28;20229;-73
2022/05/22 12:30:04;;;;;;;6.00;1.42;;;22.00;57.40;;;;;;5030617;28;20086;-75
2022/05/22 12:32:32;;;;;;;4.85;0.80;;;21.60;56.90;;;;;;5030735;28;20412;-73
2022/05/22 12:35:00;;;;;;;4.60;1.73;;;21.80;58.10;;;;;;5029361;28;20090;-75
2022/05/22 12:37:40;;;;;;;3.70;0.73;;;21.90;57.20;;;;;;5029335;28;20113;-73
2022/05/22 12:40:28;;;;;;;5.22;1.00;;;21.90;56.20;;;;;;5030323;28;20030;-73
2022/05/22 12:42:57;;;;;;;5.95;1.35;;;21.70;56.80;;;;;;5030502;28;20431;-71
2022/05/22 12:45:28;;;;;;;4.40;1.10;;;21.70;57.50;;;;;;5030794;28;20100;-71
2022/05/22 12:47:55;;;;;;;4.15;1.02;;;21.90;57.60;;;;;;5030410;28;20025;-81
2022/05/22 12:50:48;;;;;;;2.93;1.00;;;21.90;57.40;;;;;;5029471;28;20045;-72
2022/05/22 12:53:18;;;;;;;2.15;1.02;;;21.80;56.80;;;;;;5030160;28;20034;-76
2022/05/22 12:55:45;;;;;;;7.55;0.98;;;21.90;56.80;;;;;;5028980;28;20574;-75
2022/05/22 12:58:33;;;;;;;3.72;1.00;;;21.90;56.80;;;;;;5029991;28;20045;-77
2022/05/22 13:01:00;;;;;;;5.80;0.80;;;21.90;57.20;;;;;;5028967;28;20049;-77
2022/05/22 13:03:34;;;;;;;5.57;1.02;;;21.80;57.30;;;;;;5030469;28;20087;-76
2022/05/22 13:06:19;;;;;;;4.18;1.25;;;21.70;57.40;;;;;;5030214;28;20029;-75
2022/05/22 13:08:56;;;;;;;4.10;1.08;;;21.70;57.30;;;;;;5030218;28;20026;-74
2022/05/22 13:11:38;;;;;;;4.70;0.93;;;21.50;56.50;;;;;;5030250;28;20048;-73